createdAt,value
2023-02-04T00:00:23.460Z,64.43
2023-02-04T00:02:50.968Z,64.00
2023-02-04T00:05:18.772Z,64.04
2023-02-04T00:07:45.708Z,63.98
2023-02-04T00:10:12.717Z,63.70
2023-02-04T00:12:39.764Z,63.23
2023-02-04T00:15:06.994Z,63.44
2023-02-04T00:17:33.872Z,63.42
2023-02-04T00:20:00.749Z,63.13
2023-02-04T00:22:29.051Z,62.74
2023-02-04T00:24:56.107Z,63.22
2023-02-04T00:27:23.032Z,62.67
2023-02-04T00:29:49.976Z,62.77
2023-02-04T00:32:17.073Z,63.06
2023-02-04T00:34:44.045Z,62.42
2023-02-04T00:37:10.985Z,62.43
2023-02-04T00:39:38.324Z,62.47
2023-02-04T00:42:06.392Z,62.51
2023-02-04T00:44:33.325Z,62.46
2023-02-04T00:47:00.292Z,62.53
2023-02-04T00:49:27.177Z,62.84
2023-02-04T00:51:54.131Z,63.12
2023-02-04T00:54:21.244Z,63.06
2023-02-04T00:56:48.143Z,62.65
2023-02-04T00:59:15.697Z,63.14
2023-02-04T01:01:42.997Z,63.07
2023-02-04T01:04:10.147Z,63.12
2023-02-04T01:06:37.597Z,63.16
2023-02-04T01:09:05.158Z,63.66
2023-02-04T01:11:32.654Z,63.32
2023-02-04T01:13:59.869Z,63.11
2023-02-04T01:16:26.829Z,63.05
2023-02-04T01:18:55.971Z,63.06
2023-02-04T01:21:24.817Z,63.11
2023-02-04T01:23:52.092Z,63.05
2023-02-04T01:26:19.817Z,63.52
2023-02-04T01:28:47.571Z,63.26
2023-02-04T01:31:15.337Z,62.84
2023-02-04T01:33:42.514Z,62.93
2023-02-04T01:36:09.929Z,63.53
2023-02-04T01:38:36.848Z,63.00
2023-02-04T01:41:06.246Z,63.15
2023-02-04T01:43:34.111Z,63.40
2023-02-04T01:46:02.550Z,63.85
2023-02-04T01:48:30.520Z,63.50
2023-02-04T01:51:06.375Z,63.79
2023-02-04T01:53:35.073Z,63.68
2023-02-04T01:56:14.473Z,63.86
2023-02-04T01:58:41.392Z,63.42
2023-02-04T02:01:15.543Z,63.35
2023-02-04T02:03:42.990Z,63.39
2023-02-04T02:06:10.951Z,62.83
2023-02-04T02:08:38.358Z,63.07
2023-02-04T02:11:05.520Z,63.43
2023-02-04T02:13:32.535Z,63.15
2023-02-04T02:15:59.426Z,63.27
2023-02-04T02:18:26.312Z,63.49
2023-02-04T02:20:53.292Z,63.60
2023-02-04T02:23:48.490Z,63.72
2023-02-04T02:26:17.281Z,64.37
2023-02-04T02:28:45.503Z,64.05
2023-02-04T02:31:12.976Z,64.35
2023-02-04T02:33:40.107Z,64.47
2023-02-04T02:36:07.449Z,64.52
2023-02-04T02:38:34.440Z,64.26
2023-02-04T02:41:01.735Z,63.67
2023-02-04T02:43:29.649Z,63.67
2023-02-04T02:46:00.121Z,63.14
2023-02-04T02:48:27.160Z,63.49
2023-02-04T02:50:54.111Z,63.22
2023-02-04T02:53:22.429Z,63.63
2023-02-04T02:55:49.975Z,63.82
2023-02-04T02:58:28.814Z,63.76
2023-02-04T03:00:57.173Z,63.33
2023-02-04T03:03:32.451Z,64.01
2023-02-04T03:06:08.675Z,63.89
2023-02-04T03:08:36.255Z,63.77
2023-02-04T03:11:03.600Z,63.84
2023-02-04T03:13:31.470Z,64.31
2023-02-04T03:15:58.766Z,64.53
2023-02-04T03:18:25.825Z,64.39
2023-02-04T03:20:52.902Z,63.37
2023-02-04T03:23:20.702Z,63.65
2023-02-04T03:25:47.851Z,63.67
2023-02-04T03:28:14.854Z,63.26
2023-02-04T03:30:41.923Z,63.39
2023-02-04T03:33:08.905Z,62.92
2023-02-04T03:35:35.846Z,63.20
2023-02-04T03:38:02.781Z,63.20
2023-02-04T03:40:30.148Z,62.70
2023-02-04T03:42:57.322Z,63.12
2023-02-04T03:45:24.937Z,63.17
2023-02-04T03:47:51.985Z,63.35
2023-02-04T03:50:18.998Z,63.09
2023-02-04T03:52:45.925Z,62.84
2023-02-04T03:55:12.825Z,62.75
2023-02-04T03:57:39.728Z,62.54
2023-02-04T04:00:07.365Z,62.57
2023-02-04T04:02:41.076Z,62.24
2023-02-04T04:05:09.280Z,62.03
2023-02-04T04:07:36.161Z,62.13
2023-02-04T04:10:03.729Z,62.18
2023-02-04T04:12:30.596Z,62.44
2023-02-04T04:14:57.513Z,61.91
2023-02-04T04:17:24.423Z,61.92
2023-02-04T04:19:51.310Z,61.80
2023-02-04T04:22:18.383Z,61.69
2023-02-04T04:24:45.446Z,62.06
2023-02-04T04:27:12.312Z,61.78
2023-02-04T04:29:39.262Z,61.86
2023-02-04T04:32:06.283Z,62.07
2023-02-04T04:34:33.319Z,61.95
2023-02-04T04:37:00.246Z,62.43
2023-02-04T04:39:27.121Z,61.87
2023-02-04T04:41:53.985Z,62.59
2023-02-04T04:44:20.882Z,62.06
2023-02-04T04:46:47.924Z,62.34
2023-02-04T04:49:14.818Z,61.81
2023-02-04T04:51:41.687Z,61.76
2023-02-04T04:54:08.633Z,62.32
2023-02-04T04:56:35.501Z,61.81
2023-02-04T04:59:03.344Z,62.24
2023-02-04T05:01:30.346Z,61.95
2023-02-04T05:03:57.251Z,61.75
2023-02-04T05:06:25.428Z,61.79
2023-02-04T05:08:53.030Z,62.09
2023-02-04T05:11:20.659Z,62.12
2023-02-04T05:13:47.978Z,62.12
2023-02-04T05:16:15.949Z,62.04
2023-02-04T05:18:43.043Z,61.90
2023-02-04T05:21:09.933Z,61.50
2023-02-04T05:23:36.817Z,61.99
2023-02-04T05:26:03.708Z,61.53
2023-02-04T05:28:30.610Z,61.35
2023-02-04T05:30:57.598Z,61.92
2023-02-04T05:33:24.526Z,61.71
2023-02-04T05:35:51.418Z,61.84
2023-02-04T05:38:18.333Z,61.48
2023-02-04T05:40:45.228Z,61.62
2023-02-04T05:43:12.207Z,61.33
2023-02-04T05:45:39.199Z,61.31
2023-02-04T05:48:06.167Z,61.46
2023-02-04T05:50:33.580Z,61.53
2023-02-04T05:53:10.020Z,61.78
2023-02-04T05:55:36.957Z,61.65
2023-02-04T05:58:03.840Z,61.88
2023-02-04T06:00:31.002Z,61.88
2023-02-04T06:02:58.108Z,61.94
2023-02-04T06:05:25.052Z,61.55
2023-02-04T06:07:52.001Z,61.23
2023-02-04T06:10:18.997Z,61.28
2023-02-04T06:12:45.863Z,61.57
2023-02-04T06:15:13.056Z,61.85
2023-02-04T06:17:40.555Z,61.64
2023-02-04T06:20:09.308Z,61.97
2023-02-04T06:22:36.178Z,62.16
2023-02-04T06:25:03.085Z,61.91
2023-02-04T06:27:29.974Z,61.70
2023-02-04T06:29:57.413Z,61.89
2023-02-04T06:32:24.453Z,61.87
2023-02-04T06:34:51.363Z,62.02
2023-02-04T06:37:18.315Z,61.81
2023-02-04T06:39:45.249Z,62.27
2023-02-04T06:42:12.134Z,62.05
2023-02-04T06:44:39.026Z,62.63
2023-02-04T06:47:05.915Z,62.60
2023-02-04T06:49:32.797Z,62.43
2023-02-04T06:51:59.704Z,62.28
2023-02-04T06:54:26.577Z,62.78
2023-02-04T06:56:53.559Z,62.68
2023-02-04T06:59:20.442Z,63.12
2023-02-04T07:01:47.372Z,63.48
2023-02-04T07:04:14.313Z,63.21
2023-02-04T07:06:41.198Z,63.48
2023-02-04T07:09:08.111Z,64.17
2023-02-04T07:11:34.968Z,64.11
2023-02-04T07:14:02.458Z,64.05
2023-02-04T07:16:29.327Z,64.27
2023-02-04T07:18:56.198Z,64.63
2023-02-04T07:21:23.084Z,64.20
2023-02-04T07:23:49.958Z,63.88
2023-02-04T07:26:16.843Z,63.74
2023-02-04T07:28:44.482Z,63.71
2023-02-04T07:31:11.513Z,63.80
2023-02-04T07:33:38.518Z,63.16
2023-02-04T07:36:05.528Z,63.58
2023-02-04T07:38:32.430Z,63.51
2023-02-04T07:40:59.357Z,63.71
2023-02-04T07:43:26.376Z,64.00
2023-02-04T07:45:53.284Z,63.73
2023-02-04T07:48:20.158Z,63.34
2023-02-04T07:50:47.058Z,63.85
2023-02-04T07:53:14.304Z,63.83
2023-02-04T07:55:41.225Z,64.43
2023-02-04T07:58:08.157Z,64.24
2023-02-04T08:00:35.041Z,64.41
2023-02-04T08:03:01.956Z,64.43
2023-02-04T08:05:30.372Z,64.78
2023-02-04T08:07:58.522Z,64.77
2023-02-04T08:10:25.447Z,64.48
2023-02-04T08:12:52.314Z,64.38
2023-02-04T08:15:19.209Z,64.84
2023-02-04T08:17:46.076Z,64.44
2023-02-04T08:20:13.026Z,65.00
2023-02-04T08:22:40.065Z,64.78
2023-02-04T08:25:07.378Z,64.28
2023-02-04T08:27:34.259Z,64.19
2023-02-04T08:30:01.162Z,64.19
2023-02-04T08:32:29.236Z,64.36
2023-02-04T08:34:56.142Z,64.34
2023-02-04T08:37:23.109Z,64.69
2023-02-04T08:39:50.007Z,64.46
2023-02-04T08:42:17.178Z,64.57
2023-02-04T08:44:44.266Z,64.35
2023-02-04T08:47:11.798Z,63.89
2023-02-04T08:49:41.929Z,63.87
2023-02-04T08:52:09.025Z,64.60
2023-02-04T08:54:36.186Z,64.28
2023-02-04T08:57:03.632Z,63.67
2023-02-04T08:59:30.737Z,64.09
2023-02-04T09:01:57.707Z,64.48
2023-02-04T09:04:24.926Z,64.14
2023-02-04T09:06:52.152Z,63.71
2023-02-04T09:09:21.615Z,63.69
2023-02-04T09:11:49.476Z,64.10
2023-02-04T09:14:17.170Z,63.83
2023-02-04T09:16:44.121Z,63.87
2023-02-04T09:19:12.780Z,63.40
2023-02-04T09:21:39.730Z,63.42
2023-02-04T09:24:06.620Z,63.62
2023-02-04T09:26:33.530Z,63.44
2023-02-04T09:29:00.428Z,63.60
2023-02-04T09:31:27.401Z,63.98
2023-02-04T09:33:54.360Z,64.05
2023-02-04T09:36:21.380Z,63.12
2023-02-04T09:38:48.261Z,63.54
2023-02-04T09:41:15.370Z,63.50
2023-02-04T09:43:45.115Z,63.39
2023-02-04T09:46:23.181Z,62.35
2023-02-04T09:48:50.989Z,62.45
2023-02-04T09:51:22.766Z,62.01
2023-02-04T09:53:50.345Z,61.66
2023-02-04T09:56:19.262Z,61.25
2023-02-04T09:58:46.331Z,60.98
2023-02-04T10:01:19.246Z,60.70
2023-02-04T10:03:50.151Z,60.20
2023-02-04T10:06:21.142Z,60.92
2023-02-04T10:08:50.737Z,59.94
2023-02-04T10:11:20.033Z,59.16
2023-02-04T10:13:50.759Z,59.35
2023-02-04T10:16:29.868Z,59.28
2023-02-04T10:19:07.207Z,59.13
2023-02-04T10:21:39.807Z,59.55
2023-02-04T10:24:26.440Z,58.68
2023-02-04T10:26:54.012Z,58.97
2023-02-04T10:29:25.705Z,58.58
2023-02-04T10:31:53.267Z,57.97
2023-02-04T10:34:39.736Z,57.39
2023-02-04T10:37:20.578Z,56.93
2023-02-04T10:39:49.202Z,55.33
2023-02-04T10:42:30.528Z,53.62
2023-02-04T10:44:58.222Z,53.92
2023-02-04T10:47:31.459Z,54.18
2023-02-04T10:50:24.222Z,53.90
2023-02-04T10:53:18.518Z,53.72
2023-02-04T10:55:47.804Z,53.05
2023-02-04T10:58:23.173Z,52.49
2023-02-04T11:00:50.067Z,52.33
2023-02-04T11:03:26.608Z,52.52
2023-02-04T11:05:58.268Z,52.33
2023-02-04T11:08:33.615Z,52.30
2023-02-04T11:11:19.303Z,52.72
2023-02-04T11:14:03.161Z,52.36
2023-02-04T11:16:35.433Z,52.07
2023-02-04T11:19:12.170Z,52.65
2023-02-04T11:21:38.907Z,52.73
2023-02-04T11:24:05.653Z,52.87
2023-02-04T11:26:38.223Z,52.32
2023-02-04T11:29:04.964Z,52.19
2023-02-04T11:31:34.684Z,52.31
2023-02-04T11:34:15.039Z,51.60
2023-02-04T11:37:03.785Z,51.63
2023-02-04T11:39:47.784Z,51.13
2023-02-04T11:42:23.371Z,50.62
2023-02-04T11:44:59.445Z,50.19
2023-02-04T11:47:28.103Z,50.50
2023-02-04T11:50:03.572Z,51.15
2023-02-04T11:52:30.535Z,50.72
2023-02-04T11:55:00.677Z,50.12
2023-02-04T11:57:28.133Z,49.24
2023-02-04T11:59:55.463Z,49.52
2023-02-04T12:02:26.059Z,49.49
2023-02-04T12:05:13.350Z,48.73
2023-02-04T12:07:40.509Z,48.83
2023-02-04T12:10:23.275Z,49.98
2023-02-04T12:12:58.051Z,49.19
2023-02-04T12:15:36.201Z,49.95
2023-02-04T12:18:09.845Z,49.35
2023-02-04T12:20:37.433Z,48.99
2023-02-04T12:23:05.309Z,48.85
2023-02-04T12:25:32.855Z,48.43
2023-02-04T12:28:00.121Z,47.36
2023-02-04T12:30:27.286Z,47.71
2023-02-04T12:32:54.171Z,47.83
2023-02-04T12:35:21.075Z,47.88
2023-02-04T12:37:47.953Z,47.97
2023-02-04T12:40:18.014Z,47.80
2023-02-04T12:42:45.068Z,47.83
2023-02-04T12:45:14.909Z,47.70
2023-02-04T12:47:42.046Z,48.31
2023-02-04T12:50:11.362Z,48.48
2023-02-04T12:52:39.386Z,47.86
2023-02-04T12:55:09.059Z,47.17
2023-02-04T12:57:36.256Z,47.19
2023-02-04T13:00:04.541Z,46.99
2023-02-04T13:02:31.422Z,47.81
2023-02-04T13:04:58.285Z,47.27
2023-02-04T13:07:25.178Z,46.54
2023-02-04T13:09:52.424Z,46.85
2023-02-04T13:12:19.362Z,46.76
2023-02-04T13:14:46.255Z,46.75
2023-02-04T13:17:13.155Z,47.04
2023-02-04T13:19:40.214Z,46.98
2023-02-04T13:22:07.144Z,46.41
2023-02-04T13:24:34.088Z,46.24
2023-02-04T13:27:01.042Z,46.72
2023-02-04T13:29:27.927Z,46.54
2023-02-04T13:31:54.883Z,46.85
2023-02-04T13:34:21.797Z,46.24
2023-02-04T13:36:48.679Z,46.67
2023-02-04T13:39:15.946Z,46.43
2023-02-04T13:41:42.918Z,46.05
2023-02-04T13:44:09.810Z,46.78
2023-02-04T13:46:36.908Z,46.31
2023-02-04T13:49:04.081Z,46.17
2023-02-04T13:51:31.330Z,46.21
2023-02-04T13:53:59.363Z,46.30
2023-02-04T13:56:27.723Z,46.44
2023-02-04T13:58:54.747Z,46.22
2023-02-04T14:01:21.678Z,46.99
2023-02-04T14:03:48.556Z,46.85
2023-02-04T14:06:15.641Z,46.06
2023-02-04T14:08:42.535Z,46.03
2023-02-04T14:11:09.760Z,46.55
2023-02-04T14:13:36.651Z,46.42
2023-02-04T14:16:03.851Z,46.89
2023-02-04T14:18:30.882Z,46.71
2023-02-04T14:20:57.767Z,46.42
2023-02-04T14:23:24.640Z,46.33
2023-02-04T14:25:51.546Z,47.17
2023-02-04T14:28:18.452Z,46.83
2023-02-04T14:30:45.469Z,47.14
2023-02-04T14:33:12.941Z,47.52
2023-02-04T14:35:39.839Z,47.21
2023-02-04T14:38:06.720Z,46.63
2023-02-04T14:40:33.857Z,46.51
2023-02-04T14:43:00.878Z,46.59
2023-02-04T14:45:27.776Z,46.70
2023-02-04T14:47:57.091Z,47.34
2023-02-04T14:50:27.071Z,46.91
2023-02-04T14:52:56.730Z,47.11
2023-02-04T14:55:24.776Z,47.48
2023-02-04T14:57:51.890Z,47.34
2023-02-04T15:00:20.330Z,47.62
2023-02-04T15:02:47.552Z,47.70
2023-02-04T15:05:15.218Z,47.48
2023-02-04T15:07:42.534Z,47.55
2023-02-04T15:10:10.692Z,47.97
2023-02-04T15:12:37.778Z,47.59
2023-02-04T15:15:06.301Z,47.43
2023-02-04T15:17:33.190Z,47.72
2023-02-04T15:20:00.177Z,47.60
2023-02-04T15:22:27.054Z,47.32
2023-02-04T15:24:53.930Z,47.76
2023-02-04T15:27:20.800Z,47.77
2023-02-04T15:29:47.675Z,47.81
2023-02-04T15:32:14.570Z,48.13
2023-02-04T15:34:41.457Z,48.43
2023-02-04T15:37:10.843Z,48.85
2023-02-04T15:39:38.771Z,48.78
2023-02-04T15:42:05.645Z,48.57
2023-02-04T15:44:32.815Z,49.42
2023-02-04T15:46:59.700Z,48.88
2023-02-04T15:49:26.562Z,48.76
2023-02-04T15:51:53.436Z,49.51
2023-02-04T15:54:20.332Z,49.75
2023-02-04T15:56:47.250Z,48.97
2023-02-04T15:59:15.859Z,49.13
2023-02-04T16:01:42.789Z,49.12
2023-02-04T16:04:09.840Z,49.51
2023-02-04T16:06:36.782Z,49.32
2023-02-04T16:09:04.009Z,49.53
2023-02-04T16:11:31.309Z,49.42
2023-02-04T16:13:58.706Z,49.74
2023-02-04T16:16:25.632Z,49.64
2023-02-04T16:18:52.505Z,49.59
2023-02-04T16:21:19.442Z,49.71
2023-02-04T16:23:47.169Z,49.31
2023-02-04T16:26:14.188Z,49.31
2023-02-04T16:28:41.261Z,49.73
2023-02-04T16:31:11.279Z,49.92
2023-02-04T16:33:38.225Z,49.58
2023-02-04T16:36:08.480Z,50.13
2023-02-04T16:38:36.662Z,49.97
2023-02-04T16:41:03.622Z,50.67
2023-02-04T16:43:30.569Z,50.94
2023-02-04T16:45:57.598Z,50.96
2023-02-04T16:48:24.801Z,50.54
2023-02-04T16:50:51.697Z,50.81
2023-02-04T16:53:18.613Z,50.64
2023-02-04T16:55:47.795Z,50.72
2023-02-04T16:58:15.380Z,50.81
2023-02-04T17:00:43.998Z,51.00
2023-02-04T17:03:14.905Z,50.63
2023-02-04T17:05:42.181Z,51.29
2023-02-04T17:08:09.912Z,51.18
2023-02-04T17:10:56.539Z,51.17
2023-02-04T17:13:23.438Z,51.61
2023-02-04T17:15:50.348Z,51.83
2023-02-04T17:18:17.318Z,51.45
2023-02-04T17:20:44.238Z,51.99
2023-02-04T17:23:11.142Z,51.83
2023-02-04T17:25:38.013Z,51.96
2023-02-04T17:28:04.970Z,52.19
2023-02-04T17:30:32.058Z,52.17
2023-02-04T17:32:58.983Z,52.56
2023-02-04T17:35:26.065Z,52.36
2023-02-04T17:37:53.862Z,52.69
2023-02-04T17:40:20.821Z,52.90
2023-02-04T17:42:47.735Z,53.14
2023-02-04T17:45:14.625Z,52.81
2023-02-04T17:47:41.582Z,53.45
2023-02-04T17:50:10.551Z,53.26
2023-02-04T17:52:38.343Z,52.74
2023-02-04T17:55:29.184Z,52.82
2023-02-04T17:58:00.254Z,53.06
2023-02-04T18:00:30.791Z,52.95
2023-02-04T18:02:58.726Z,53.24
2023-02-04T18:05:28.268Z,52.83
2023-02-04T18:08:21.623Z,53.13
2023-02-04T18:10:51.184Z,53.10
2023-02-04T18:13:20.454Z,52.76
2023-02-04T18:15:58.387Z,52.89
2023-02-04T18:18:35.987Z,53.46
2023-02-04T18:21:41.844Z,53.22
2023-02-04T18:24:18.784Z,53.02
2023-02-04T18:26:49.055Z,53.70
2023-02-04T18:29:38.956Z,53.65
2023-02-04T18:32:08.837Z,53.58
2023-02-04T18:34:43.825Z,53.13
2023-02-04T18:37:41.152Z,53.37
2023-02-04T18:40:11.604Z,52.98
2023-02-04T18:42:42.722Z,53.16
2023-02-04T18:45:31.646Z,53.22
2023-02-04T18:48:01.418Z,52.60
2023-02-04T18:50:32.580Z,53.13
2023-02-04T18:53:15.120Z,53.09
2023-02-04T18:55:51.774Z,53.26
2023-02-04T18:58:37.643Z,52.94
2023-02-04T19:01:10.728Z,53.17
2023-02-04T19:03:49.103Z,53.22
2023-02-04T19:06:25.457Z,53.33
2023-02-04T19:08:53.665Z,53.29
2023-02-04T19:11:39.010Z,53.47
2023-02-04T19:14:30.472Z,53.50
2023-02-04T19:17:29.748Z,53.27
2023-02-04T19:20:18.038Z,53.21
2023-02-04T19:22:55.730Z,53.25
2023-02-04T19:25:46.748Z,53.67
2023-02-04T19:28:30.279Z,53.75
2023-02-04T19:31:05.150Z,53.83
2023-02-04T19:33:43.107Z,53.49
2023-02-04T19:36:37.138Z,53.45
2023-02-04T19:39:40.209Z,53.71
2023-02-04T19:42:31.494Z,53.94
2023-02-04T19:45:19.377Z,53.65
2023-02-04T19:47:46.391Z,53.81
2023-02-04T19:50:13.343Z,53.78
2023-02-04T19:53:02.010Z,53.55
2023-02-04T19:55:36.615Z,53.60
2023-02-04T19:58:16.309Z,54.30
2023-02-04T20:00:54.196Z,53.58
2023-02-04T20:03:44.776Z,53.35
2023-02-04T20:06:27.509Z,53.52
2023-02-04T20:09:29.151Z,53.52
2023-02-04T20:12:12.391Z,53.40
2023-02-04T20:14:49.620Z,53.65
2023-02-04T20:17:40.710Z,53.41
2023-02-04T20:20:29.344Z,53.14
2023-02-04T20:23:27.662Z,53.45
2023-02-04T20:25:56.198Z,53.51
2023-02-04T20:28:41.940Z,53.35
2023-02-04T20:31:39.512Z,53.79
2023-02-04T20:34:24.608Z,53.58
2023-02-04T20:36:52.300Z,53.83
2023-02-04T20:39:28.655Z,53.63
2023-02-04T20:42:17.741Z,53.53
2023-02-04T20:44:46.928Z,53.58
2023-02-04T20:47:25.262Z,53.38
2023-02-04T20:49:56.352Z,53.29
2023-02-04T20:52:41.441Z,53.60
2023-02-04T20:55:23.105Z,53.46
2023-02-04T20:57:53.482Z,53.52
2023-02-04T21:00:32.263Z,53.29
2023-02-04T21:03:26.197Z,53.73
2023-02-04T21:05:55.764Z,53.46
2023-02-04T21:08:45.472Z,53.61
2023-02-04T21:11:12.443Z,53.48
2023-02-04T21:13:40.951Z,53.41
2023-02-04T21:16:08.778Z,53.81
2023-02-04T21:18:35.899Z,53.58
2023-02-04T21:21:04.987Z,54.04
2023-02-04T21:23:31.921Z,54.23
2023-02-04T21:25:58.897Z,53.85
2023-02-04T21:28:25.931Z,53.86
2023-02-04T21:30:52.865Z,54.22
2023-02-04T21:33:19.828Z,54.19
2023-02-04T21:35:46.796Z,54.23
2023-02-04T21:38:13.776Z,54.48
2023-02-04T21:40:40.817Z,54.45
2023-02-04T21:43:08.328Z,54.44
2023-02-04T21:45:37.865Z,54.75
2023-02-04T21:48:06.124Z,54.91
2023-02-04T21:50:33.179Z,55.08
2023-02-04T21:53:00.375Z,55.04
2023-02-04T21:55:28.686Z,55.38
2023-02-04T21:57:55.600Z,55.30
2023-02-04T22:00:23.846Z,55.17
2023-02-04T22:02:52.701Z,55.43
2023-02-04T22:05:21.535Z,55.58
2023-02-04T22:07:49.123Z,55.42
2023-02-04T22:10:25.625Z,55.28
2023-02-04T22:12:52.763Z,55.46
2023-02-04T22:15:24.039Z,55.31
2023-02-04T22:17:53.663Z,55.90
2023-02-04T22:20:23.118Z,55.48
2023-02-04T22:22:50.418Z,55.69
2023-02-04T22:25:20.032Z,55.76
2023-02-04T22:27:46.981Z,55.84
2023-02-04T22:30:15.714Z,55.50
2023-02-04T22:32:42.689Z,55.47
2023-02-04T22:35:11.265Z,55.62
2023-02-04T22:37:39.882Z,55.48
2023-02-04T22:40:08.826Z,55.44
2023-02-04T22:42:35.724Z,55.61
2023-02-04T22:45:03.788Z,55.48
2023-02-04T22:47:31.452Z,55.48
2023-02-04T22:49:58.408Z,55.43
2023-02-04T22:52:25.309Z,55.85
2023-02-04T22:54:52.725Z,55.40
2023-02-04T22:57:19.625Z,55.69
2023-02-04T22:59:46.535Z,55.70
2023-02-04T23:02:13.488Z,55.64
2023-02-04T23:04:42.435Z,55.93
2023-02-04T23:07:11.193Z,55.44
2023-02-04T23:09:38.097Z,55.55
2023-02-04T23:12:14.955Z,55.47
2023-02-04T23:14:47.663Z,55.89
2023-02-04T23:17:16.581Z,55.87
2023-02-04T23:19:43.963Z,55.65
2023-02-04T23:22:12.576Z,55.61
2023-02-04T23:24:40.691Z,55.72
2023-02-04T23:27:10.814Z,55.87
2023-02-04T23:29:39.530Z,55.67
2023-02-04T23:32:07.299Z,55.63
2023-02-04T23:34:34.578Z,56.00
2023-02-04T23:37:01.806Z,56.04
2023-02-04T23:39:28.824Z,55.85
2023-02-04T23:41:55.797Z,56.00
2023-02-04T23:44:23.100Z,55.86
2023-02-04T23:46:50.058Z,55.66
2023-02-04T23:49:17.112Z,56.03
2023-02-04T23:51:44.097Z,56.01
2023-02-04T23:54:11.026Z,56.05
2023-02-04T23:56:38.143Z,56.23
2023-02-04T23:59:05.771Z,55.89
